Canaseraga, New York
Current Conditions -  °F | °C
As of 10:54 PM on Sunday 21 Dec 2014 (Local Time) from KDSV Reporting Station
Overcast Overcast  
Wind Chill: 22°   Ceiling: 2100
Heat Index: 30°   Visibility: 10mi
Dew Point: 22°   Wind: 8mph
Humidity: 72%   Direction: 110°ESE
Pressure: 30.3"   Gusts: NA
Location:  42.46°N, 77.78°W
Report Text: KDSV 220354Z AUTO 11007KT 10SM OVC021 M01/M06 A3030 RMK AO2 SLP276 T10111056
Loading
Personal Weather Stations






























Interactive Weather Map New forecast layout! Learn more

10-Day Weather Forecast

Advertisements
Track Severe Weather on mobile